RKJJ/KWJ METAR and TAF weather

Enter ICAO airport designator
Station Type Date Time Source
RKJJ METAR 2021/07/19 17:38 UTC NOAA

RKJJ 191738Z 00000KT 9999 -RA BKN060 OVC150 26/23 A2994 RMK CIG060


Station Type Date Time Source
RKJJ Decoded METAR 2021/07/19 17:38 UTC NOAA

Kwangju Ab, Korea, South (RKJJ) 35-07N 126-49E 13M
Jul 19, 2021 - 01:38 PM EDT / 2021.07.19 1738 UTC
Wind: Calm:0
Visibility: greater than 7 mile(s):0
Sky conditions: overcast
Weather: light rain
Temperature: 78 F (26 C)
Dew Point: 73 F (23 C)
Relative Humidity: 83%
Pressure (altimeter): 29.94 in. Hg (1013 hPa)
ob: RKJJ 191738Z 00000KT 9999 -RA BKN060 OVC150 26/23 A2994 RMK CIG060
cycle: 17

Station Type Date Time Source
RKJJ TAF 2020/09/17 12:09 UTC NOAA

TAF TAF RKJJ 171100Z 1712/1818 15006KT 8000 -RA SCT030 OVC100 TN18/1721Z TX23/1806Z
BECMG 1717/1718 21006KT 4800 -RA BR BKN015 OVC030
BECMG 1723/1724 24006KT 9999 NSW BKN030 BKN100
BECMG 1803/1804 SCT030

Example: see airport list